Time;durP1;ratioP1;P1;durP2;ratioP2;P2;SDS_P1;SDS_P2;PMS_P1;PMS_P2;Temp;Humidity;BMP_temperature;BMP_pressure;BME280_temperature;BME280_humidity;BME280_pressure;Samples;Min_cycle;Max_cycle;Signal;HPM_P1;HPM_P2
2023/01/31 00:01:31;;;;;;;15.63;4.55;;;;;;;7.26;54.95;102354.69;6180742;23;20089;-70
2023/01/31 00:04:00;;;;;;;16.48;5.25;;;;;;;7.22;55.04;102351.25;6180992;22;20100;-70
2023/01/31 00:06:33;;;;;;;20.90;5.40;;;;;;;7.21;55.18;102356.66;6180822;23;20082;-70
2023/01/31 00:09:00;;;;;;;16.48;4.85;;;;;;;7.19;55.21;102355.84;6181842;23;20016;-70
2023/01/31 00:11:29;;;;;;;21.35;5.20;;;;;;;7.18;55.32;102362.09;6181408;23;20017;-69
2023/01/31 00:13:58;;;;;;;16.33;4.20;;;;;;;7.15;55.20;102351.50;6181130;22;20020;-70
2023/01/31 00:16:25;;;;;;;15.45;4.35;;;;;;;7.13;55.19;102356.03;6181472;23;20013;-70
2023/01/31 00:18:51;;;;;;;12.90;4.63;;;;;;;7.08;55.12;102356.19;6181807;23;20512;-70
2023/01/31 00:21:24;;;;;;;15.05;4.13;;;;;;;7.01;55.10;102360.84;6181735;23;20017;-70
2023/01/31 00:23:52;;;;;;;15.88;3.90;;;;;;;6.99;55.04;102367.16;6181347;23;20033;-70
2023/01/31 00:26:30;;;;;;;15.93;4.35;;;;;;;6.97;55.25;102369.88;6181473;23;20058;-70
2023/01/31 00:28:59;;;;;;;16.50;4.47;;;;;;;6.96;55.14;102372.59;6181254;23;20325;-70
2023/01/31 00:31:28;;;;;;;15.20;5.03;;;;;;;6.94;55.21;102369.09;6155262;23;20338;-69
2023/01/31 00:33:55;;;;;;;14.80;4.40;;;;;;;6.93;55.13;102368.25;6181013;23;20014;-70
2023/01/31 00:36:24;;;;;;;12.18;4.20;;;;;;;6.93;55.18;102359.34;6181195;22;20025;-70
2023/01/31 00:38:52;;;;;;;11.90;3.67;;;;;;;6.92;55.13;102369.16;6154356;23;20028;-70
2023/01/31 00:41:21;;;;;;;14.30;3.47;;;;;;;6.90;55.16;102360.31;6180341;23;20041;-70
2023/01/31 00:43:49;;;;;;;12.57;4.35;;;;;;;6.88;55.30;102362.16;6180433;23;20459;-70
2023/01/31 00:46:16;;;;;;;11.70;4.18;;;;;;;6.84;55.09;102360.50;6180628;23;20040;-71
2023/01/31 00:48:43;;;;;;;13.68;3.80;;;;;;;6.83;55.09;102357.88;6153025;22;20058;-70
2023/01/31 00:51:10;;;;;;;12.82;4.07;;;;;;;6.81;55.22;102359.75;6179514;23;20017;-69
2023/01/31 00:53:38;;;;;;;18.50;4.72;;;;;;;6.79;55.27;102346.44;6179690;23;20017;-71
2023/01/31 00:56:15;;;;;;;9.25;3.95;;;;;;;6.79;55.18;102353.56;6154099;23;20462;-69
2023/01/31 00:58:42;;;;;;;18.50;4.57;;;;;;;6.78;55.33;102347.34;6154045;23;20024;-69
2023/01/31 01:01:12;;;;;;;15.35;3.95;;;;;;;6.77;55.20;102350.94;6154391;22;20025;-70
2023/01/31 01:03:40;;;;;;;10.02;4.43;;;;;;;6.77;55.40;102364.28;6154378;22;20021;-70
2023/01/31 01:06:08;;;;;;;20.60;4.88;;;;;;;6.77;55.39;102355.41;6181019;23;20088;-70
2023/01/31 01:08:36;;;;;;;15.70;4.22;;;;;;;6.77;55.20;102347.41;6180646;23;20058;-70
2023/01/31 01:11:12;;;;;;;15.73;5.03;;;;;;;6.76;55.52;102343.88;6154599;23;20444;-70
2023/01/31 01:13:40;;;;;;;13.82;4.10;;;;;;;6.79;55.60;102345.56;6181215;23;20432;-70
2023/01/31 01:16:12;;;;;;;18.67;4.18;;;;;;;6.80;55.59;102341.97;6181628;22;20100;-70
2023/01/31 01:18:39;;;;;;;12.70;3.45;;;;;;;6.79;55.47;102343.75;6180923;23;20248;-70
2023/01/31 01:21:10;;;;;;;14.90;4.47;;;;;;;6.79;55.57;102334.88;6180844;23;20043;-71
2023/01/31 01:23:38;;;;;;;14.55;4.65;;;;;;;6.75;55.56;102326.09;6180428;23;20020;-71
2023/01/31 01:26:05;;;;;;;15.70;4.25;;;;;;;6.73;55.59;102327.94;6153718;23;20032;-69
2023/01/31 01:28:34;;;;;;;16.00;4.78;;;;;;;6.73;55.64;102319.94;6154083;23;20036;-70
2023/01/31 01:31:08;;;;;;;15.75;3.90;;;;;;;6.75;55.70;102325.22;6180613;23;20317;-69
2023/01/31 01:33:35;;;;;;;16.60;4.22;;;;;;;6.78;55.82;102322.44;6180034;23;20014;-70
2023/01/31 01:36:07;;;;;;;8.77;3.80;;;;;;;6.80;55.80;102323.28;6153691;23;20386;-69
2023/01/31 01:38:35;;;;;;;20.23;5.55;;;;;;;6.80;55.83;102316.13;6180702;23;20037;-70
2023/01/31 01:41:03;;;;;;;14.00;3.58;;;;;;;6.80;55.72;102309.94;6180958;23;20444;-70
2023/01/31 01:43:56;;;;;;;17.20;3.80;;;;;;;6.79;55.81;102309.06;6154390;23;20329;-70
2023/01/31 01:46:29;;;;;;;12.32;3.95;;;;;;;6.80;55.84;102308.13;6180873;23;20112;-70
2023/01/31 01:49:03;;;;;;;19.52;5.15;;;;;;;6.79;55.82;102311.72;6181131;23;20413;-70
2023/01/31 01:51:32;;;;;;;12.57;4.47;;;;;;;6.81;55.84;102315.22;6181093;23;20039;-70
2023/01/31 01:54:04;;;;;;;15.10;4.45;;;;;;;6.83;55.88;102308.03;6180573;23;20017;-70
2023/01/31 01:56:38;;;;;;;13.55;4.03;;;;;;;6.85;55.88;102318.66;6154442;22;20347;-70
2023/01/31 01:59:23;;;;;;;19.30;4.82;;;;;;;6.85;56.01;102314.19;6180742;22;20017;-71
2023/01/31 02:01:51;;;;;;;17.42;4.35;;;;;;;6.87;55.85;102307.00;6181198;23;20013;-69
2023/01/31 02:04:22;;;;;;;15.73;4.13;;;;;;;6.88;55.88;102308.75;6154843;23;20456;-70
2023/01/31 02:06:49;;;;;;;15.70;4.38;;;;;;;6.90;55.95;102308.69;6181292;23;20017;-70
2023/01/31 02:09:26;;;;;;;14.23;4.30;;;;;;;6.89;55.88;102299.81;6180805;23;20021;-69
2023/01/31 02:11:53;;;;;;;14.23;4.57;;;;;;;6.89;55.82;102312.31;6154110;23;20021;-70
2023/01/31 02:14:20;;;;;;;16.27;5.45;;;;;;;6.88;55.79;102319.44;6154273;23;20021;-69
2023/01/31 02:16:47;;;;;;;18.05;4.80;;;;;;;6.88;55.81;102324.78;6180911;22;20040;-69
2023/01/31 02:19:27;;;;;;;15.35;3.70;;;;;;;6.89;55.90;102325.66;6154525;23;20017;-69
2023/01/31 02:22:09;;;;;;;18.33;4.93;;;;;;;6.88;55.83;102332.78;6180689;23;20047;-70
2023/01/31 02:25:11;;;;;;;16.10;4.22;;;;;;;6.88;55.93;102330.13;6154040;23;20013;-69
2023/01/31 02:28:03;;;;;;;18.92;4.60;;;;;;;6.88;55.95;102331.91;6180116;23;20096;-69
2023/01/31 02:31:01;;;;;;;14.55;5.03;;;;;;;6.85;56.03;102337.34;6153928;23;20067;-70
2023/01/31 02:33:57;;;;;;;16.98;4.93;;;;;;;6.84;56.03;102335.59;6154069;23;20280;-70
2023/01/31 02:36:33;;;;;;;20.42;6.43;;;;;;;6.80;56.07;102340.16;6153029;23;20317;-70
2023/01/31 02:39:13;;;;;;;18.92;5.68;;;;;;;6.80;56.16;102339.28;6180227;23;20444;-70
2023/01/31 02:41:50;;;;;;;13.05;5.07;;;;;;;6.81;56.11;102327.69;6153962;22;20021;-70
2023/01/31 02:47:44;;;;;;;23.58;6.13;;;;;;;6.81;56.15;102327.69;6180188;23;20380;-70
2023/01/31 02:50:13;;;;;;;15.60;5.57;;;;;;;6.77;56.18;102323.38;6153985;23;20017;-69
2023/01/31 02:52:47;;;;;;;16.17;5.82;;;;;;;6.76;56.26;102321.63;6153597;23;20104;-70
2023/01/31 02:58:18;;;;;;;19.10;6.88;;;;;;;6.77;56.33;102316.25;6153383;23;20013;-70
2023/01/31 03:00:48;;;;;;;16.98;5.78;;;;;;;6.79;56.42;102305.50;6153528;23;20017;-69
2023/01/31 03:03:26;;;;;;;18.73;6.07;;;;;;;6.81;56.52;102304.53;6179782;23;20439;-69
2023/01/31 03:06:21;;;;;;;15.18;6.45;;;;;;;6.85;56.53;102310.66;6180191;23;20115;-69
2023/01/31 03:09:01;;;;;;;16.88;6.10;;;;;;;6.88;56.63;102307.88;6152971;22;20022;-70
2023/01/31 03:11:34;;;;;;;17.75;6.88;;;;;;;6.91;56.67;102302.44;6179164;23;20436;-70
2023/01/31 03:14:20;;;;;;;16.30;6.60;;;;;;;6.93;56.55;102298.78;6179028;23;20009;-70
2023/01/31 03:20:14;;;;;;;21.42;6.72;;;;;;;6.98;56.70;102295.97;6178967;23;20039;-70
2023/01/31 03:22:47;;;;;;;19.92;7.82;;;;;;;7.00;56.73;102288.78;6178742;23;20403;-71
2023/01/31 03:25:18;;;;;;;18.98;7.30;;;;;;;7.02;56.82;102297.63;6179687;23;20348;-69
2023/01/31 03:27:51;;;;;;;16.77;7.75;;;;;;;7.04;57.12;102285.09;6153310;23;20104;-70
2023/01/31 03:30:26;;;;;;;21.83;7.88;;;;;;;7.06;56.93;102285.91;6179570;23;20441;-70
2023/01/31 03:32:59;;;;;;;20.95;8.18;;;;;;;7.10;57.02;102284.00;6179527;23;20340;-70
2023/01/31 03:35:30;;;;;;;23.73;8.68;;;;;;;7.13;57.17;102287.44;6153321;22;20108;-71
2023/01/31 03:38:04;;;;;;;19.77;8.93;;;;;;;7.17;57.24;102288.22;6153195;23;20024;-70
2023/01/31 03:40:57;;;;;;;24.55;7.97;;;;;;;7.20;57.60;102277.41;6153086;23;20025;-70
2023/01/31 03:43:30;;;;;;;21.67;9.50;;;;;;;7.24;57.42;102271.06;6179963;23;20018;-70
2023/01/31 03:46:05;;;;;;;;;;;;;;;7.26;57.40;102277.22;6155202;23;20071;-70
2023/01/31 03:48:37;;;;;;;23.17;8.68;;;;;;;7.29;57.24;102261.94;6155332;23;19995;-70
2023/01/31 03:51:09;;;;;;;20.70;9.25;;;;;;;7.31;57.28;102257.41;6155992;23;20024;-71
2023/01/31 03:53:46;;;;;;;25.95;10.25;;;;;;;7.34;57.54;102256.44;6155525;23;20058;-71
2023/01/31 03:56:19;;;;;;;24.20;10.07;;;;;;;7.36;57.57;102259.94;6155218;23;20473;-71
2023/01/31 03:58:49;;;;;;;25.38;10.07;;;;;;;7.39;57.78;102258.94;6181897;23;20044;-71
2023/01/31 04:01:21;;;;;;;22.48;9.73;;;;;;;7.42;57.82;102264.19;6154948;23;20017;-70
2023/01/31 04:03:57;;;;;;;24.40;11.43;;;;;;;7.46;57.80;102257.84;6180846;23;20100;-71
2023/01/31 04:06:26;;;;;;;20.23;10.23;;;;;;;7.50;57.75;102259.47;6154734;22;20023;-70
2023/01/31 04:08:53;;;;;;;21.70;10.02;;;;;;;7.52;58.08;102255.81;6154751;23;20017;-70
2023/01/31 04:11:23;;;;;;;23.88;11.23;;;;;;;7.54;58.06;102258.44;6180577;23;20341;-70
2023/01/31 04:13:50;;;;;;;27.35;11.05;;;;;;;7.56;58.10;102267.28;6180771;23;20017;-70
2023/01/31 04:16:17;;;;;;;26.65;10.30;;;;;;;7.57;57.99;102251.19;6180728;23;20054;-70
2023/01/31 04:18:43;;;;;;;26.42;10.90;;;;;;;7.59;58.24;102257.34;6180785;22;20014;-71
2023/01/31 04:21:12;;;;;;;26.25;10.75;;;;;;;7.63;58.14;102245.59;6181047;23;20021;-70
2023/01/31 04:23:38;;;;;;;27.08;11.25;;;;;;;7.65;58.23;102254.44;6180610;23;20027;-71
2023/01/31 04:26:05;;;;;;;28.38;11.80;;;;;;;7.66;58.15;102241.94;6180970;23;20474;-71
2023/01/31 04:28:31;;;;;;;26.50;11.90;;;;;;;7.68;58.15;102239.22;6180638;23;20021;-70
2023/01/31 04:30:58;;;;;;;29.80;11.43;;;;;;;7.70;58.35;102240.03;6181017;23;20093;-71
2023/01/31 04:33:25;;;;;;;29.33;11.75;;;;;;;7.69;58.33;102233.81;6180971;23;20055;-70
2023/01/31 04:35:52;;;;;;;27.10;11.52;;;;;;;7.72;58.36;102240.84;6181608;23;20013;-70
2023/01/31 04:38:18;;;;;;;28.35;11.43;;;;;;;7.73;58.33;102229.22;6181277;22;20009;-70
2023/01/31 04:40:45;;;;;;;29.27;13.10;;;;;;;7.74;58.54;102233.63;6181826;22;20078;-70
2023/01/31 04:43:12;;;;;;;33.63;11.90;;;;;;;7.76;58.33;102240.69;6163345;23;20017;-70
2023/01/31 04:45:39;;;;;;;23.33;11.82;;;;;;;7.76;58.45;102232.66;6181531;23;20095;-71
2023/01/31 04:48:06;;;;;;;27.92;11.85;;;;;;;7.77;58.45;102226.38;6181318;23;20390;-71
2023/01/31 04:50:33;;;;;;;30.98;12.93;;;;;;;7.77;58.56;102231.72;6181987;23;20019;-70
2023/01/31 04:52:59;;;;;;;27.00;11.15;;;;;;;7.78;58.58;102229.94;6181635;23;20440;-70
2023/01/31 04:55:26;;;;;;;25.33;11.50;;;;;;;7.77;58.52;102228.19;6181192;23;20021;-71
2023/01/31 04:57:53;;;;;;;27.98;12.70;;;;;;;7.76;58.48;102226.44;6181680;23;20351;-70
2023/01/31 05:00:20;;;;;;;29.60;12.95;;;;;;;7.76;58.60;102215.75;6181406;23;20018;-71
2023/01/31 05:02:46;;;;;;;26.17;11.10;;;;;;;7.74;58.57;102215.78;6181347;23;20554;-70
2023/01/31 05:05:13;;;;;;;24.17;11.80;;;;;;;7.74;58.66;102217.59;6181573;23;20017;-71
2023/01/31 05:07:39;;;;;;;29.70;12.68;;;;;;;7.73;58.64;102215.84;6181737;23;20013;-70
2023/01/31 05:10:07;;;;;;;27.95;12.48;;;;;;;7.72;58.51;102211.44;6181596;22;20479;-70
2023/01/31 05:12:33;;;;;;;24.73;11.52;;;;;;;7.71;58.59;102215.91;6181368;23;20025;-70
2023/01/31 05:15:00;;;;;;;23.88;11.27;;;;;;;7.70;58.66;102203.47;6155234;22;20013;-70
2023/01/31 05:17:28;;;;;;;24.85;12.00;;;;;;;7.71;58.46;102210.56;6181336;22;20463;-70
2023/01/31 05:19:56;;;;;;;18.38;10.93;;;;;;;7.70;58.36;102206.16;6181529;23;20448;-76
2023/01/31 05:22:23;;;;;;;26.00;12.27;;;;;;;7.68;58.63;102210.69;6181127;23;20024;-70
2023/01/31 05:24:50;;;;;;;30.25;11.98;;;;;;;7.65;58.39;102209.00;6181713;23;20024;-70
2023/01/31 05:27:18;;;;;;;31.45;12.35;;;;;;;7.65;58.47;102197.41;6155250;23;20382;-71
2023/01/31 05:29:45;;;;;;;23.58;12.18;;;;;;;7.63;58.41;102200.16;6181904;23;20103;-72
2023/01/31 05:32:13;;;;;;;28.40;12.20;;;;;;;7.63;58.63;102191.25;6181414;22;20114;-71
2023/01/31 05:34:39;;;;;;;30.55;12.80;;;;;;;7.64;58.64;102198.34;6181421;23;20017;-73
2023/01/31 05:37:06;;;;;;;29.08;12.32;;;;;;;7.65;58.67;102190.28;6181279;23;20013;-72
2023/01/31 05:39:33;;;;;;;30.60;12.27;;;;;;;7.67;58.76;102190.22;6154895;23;20017;-70
2023/01/31 05:42:00;;;;;;;26.88;11.38;;;;;;;7.68;58.93;102191.09;6180012;23;20017;-70
2023/01/31 05:44:27;;;;;;;25.52;12.50;;;;;;;7.70;58.88;102190.09;6154362;23;20405;-70
2023/01/31 05:46:54;;;;;;;24.35;11.82;;;;;;;7.72;58.97;102182.03;6180007;23;20108;-70
2023/01/31 05:49:20;;;;;;;24.23;11.85;;;;;;;7.74;58.92;102178.34;6154086;23;20017;-71
2023/01/31 05:51:47;;;;;;;29.35;11.70;;;;;;;7.76;58.83;102180.97;6179904;23;20013;-71
2023/01/31 05:54:13;;;;;;;26.50;12.40;;;;;;;7.76;58.88;102164.94;6180096;23;20070;-71
2023/01/31 05:56:40;;;;;;;27.77;12.02;;;;;;;7.77;59.07;102175.56;6180035;23;20084;-70
2023/01/31 05:59:07;;;;;;;29.63;12.20;;;;;;;7.79;58.96;102175.50;6180382;22;20024;-71
2023/01/31 06:01:33;;;;;;;24.17;11.73;;;;;;;7.81;58.99;102171.84;6180105;23;20017;-70
2023/01/31 06:04:00;;;;;;;32.17;12.90;;;;;;;7.80;58.96;102170.09;6180047;23;20424;-69
2023/01/31 06:06:27;;;;;;;27.65;11.82;;;;;;;7.82;59.24;102173.59;6180003;23;20013;-71
2023/01/31 06:08:54;;;;;;;21.90;10.88;;;;;;;7.84;59.29;102168.19;6180376;23;20062;-71
2023/01/31 06:11:20;;;;;;;26.15;12.27;;;;;;;7.87;59.37;102163.59;6154311;23;20043;-70
2023/01/31 06:13:48;;;;;;;24.40;11.27;;;;;;;7.89;59.22;102175.09;6181276;23;20031;-70
2023/01/31 06:16:14;;;;;;;29.23;12.77;;;;;;;7.91;59.35;102178.56;6155005;22;20070;-71
2023/01/31 06:18:46;;;;;;;29.30;12.43;;;;;;;7.92;59.22;102180.31;6180715;23;20480;-70
2023/01/31 06:21:12;;;;;;;21.55;12.30;;;;;;;7.93;59.13;102175.84;6181767;22;20339;-70
2023/01/31 06:23:40;;;;;;;25.98;11.82;;;;;;;7.94;59.17;102175.78;6181167;23;20013;-70
2023/01/31 06:26:07;;;;;;;20.75;10.48;;;;;;;7.96;59.28;102181.06;6154701;23;20464;-70
2023/01/31 06:28:35;;;;;;;23.52;11.43;;;;;;;7.97;59.27;102177.47;6155015;23;20062;-70
2023/01/31 06:31:09;;;;;;;25.33;11.75;;;;;;;7.97;59.23;102178.34;6181057;23;20017;-70
2023/01/31 06:33:36;;;;;;;26.02;11.68;;;;;;;7.98;59.30;102171.19;6154764;23;20017;-71
2023/01/31 06:36:13;;;;;;;23.17;10.95;;;;;;;7.98;59.27;102180.09;6181002;23;20024;-68
2023/01/31 06:38:43;;;;;;;24.08;11.13;;;;;;;7.98;59.32;102166.72;6181271;23;20017;-69
2023/01/31 06:41:11;;;;;;;21.33;10.55;;;;;;;7.98;59.24;102158.69;6180204;23;20088;-70
2023/01/31 06:43:38;;;;;;;23.02;10.43;;;;;;;7.98;59.37;102164.03;6180158;23;20017;-69
2023/01/31 06:46:04;;;;;;;20.00;11.10;;;;;;;8.00;59.27;102169.31;6180289;23;20088;-70
2023/01/31 06:48:31;;;;;;;20.23;9.75;;;;;;;8.00;59.26;102163.09;6179884;23;20043;-70
2023/01/31 06:50:58;;;;;;;19.52;10.40;;;;;;;8.00;59.32;102139.91;6179810;23;20383;-70
2023/01/31 06:53:24;;;;;;;29.98;11.55;;;;;;;8.03;59.26;102139.78;6179557;23;20024;-70
2023/01/31 06:55:51;;;;;;;21.02;10.30;;;;;;;8.03;59.32;102142.44;6180190;22;20017;-70
2023/01/31 06:58:17;;;;;;;22.83;10.27;;;;;;;8.04;59.09;102149.53;6179791;23;20092;-70
2023/01/31 07:00:46;;;;;;;21.90;9.90;;;;;;;8.05;59.09;102145.06;6179742;23;20013;-69
2023/01/31 07:03:13;;;;;;;27.58;10.50;;;;;;;8.05;59.02;102151.28;6179531;23;20317;-69
2023/01/31 07:05:40;;;;;;;22.20;10.52;;;;;;;8.07;59.01;102152.09;6154379;22;20016;-70
2023/01/31 07:08:06;;;;;;;25.08;10.30;;;;;;;8.09;59.12;102152.03;6180978;23;20036;-70
2023/01/31 07:10:33;;;;;;;21.80;10.02;;;;;;;8.08;58.98;102152.97;6180710;23;20037;-70
2023/01/31 07:13:00;;;;;;;20.60;9.75;;;;;;;8.08;59.04;102142.25;6180635;23;20436;-70
2023/01/31 07:15:26;;;;;;;22.25;10.32;;;;;;;8.08;59.11;102132.44;6180793;23;20044;-70
2023/01/31 07:17:58;;;;;;;26.27;9.93;;;;;;;8.08;59.10;102132.44;6130261;23;20096;-71
2023/01/31 07:20:25;;;;;;;24.05;10.23;;;;;;;8.09;59.17;102130.63;6154377;23;20027;-70
2023/01/31 07:22:56;;;;;;;29.40;11.02;;;;;;;8.10;59.14;102119.88;6180543;23;20092;-70
2023/01/31 07:25:24;;;;;;;26.02;9.90;;;;;;;8.10;59.21;102130.56;6155134;23;20340;-70
2023/01/31 07:27:50;;;;;;;26.98;9.75;;;;;;;8.09;59.31;102126.16;6182210;23;20092;-70
2023/01/31 07:30:18;;;;;;;19.00;9.55;;;;;;;8.11;59.28;102110.91;6181756;23;20017;-74
2023/01/31 07:32:45;;;;;;;25.77;10.13;;;;;;;8.11;59.19;102113.59;6181134;23;20100;-71
2023/01/31 07:35:11;;;;;;;24.88;10.40;;;;;;;8.11;59.14;102116.25;6181429;23;20371;-71
2023/01/31 07:37:39;;;;;;;22.85;9.98;;;;;;;8.13;59.32;102105.50;6180836;22;20040;-71
2023/01/31 07:40:06;;;;;;;21.70;10.32;;;;;;;8.14;59.49;102116.13;6181375;22;20021;-71
2023/01/31 07:42:33;;;;;;;21.95;10.07;;;;;;;8.16;59.47;102110.72;6180429;23;20020;-71
2023/01/31 07:45:00;;;;;;;24.92;10.00;;;;;;;8.17;59.47;102113.31;6180907;23;20350;-71
2023/01/31 07:47:46;;;;;;;23.15;9.73;;;;;;;8.20;59.39;102115.91;6180927;23;20047;-71
2023/01/31 07:50:12;;;;;;;23.05;10.57;;;;;;;8.20;59.46;102110.56;6180876;23;20023;-70
2023/01/31 07:52:39;;;;;;;22.92;9.80;;;;;;;8.22;59.44;102103.34;6180292;22;20020;-71
2023/01/31 07:55:06;;;;;;;22.75;10.02;;;;;;;8.25;59.44;102105.88;6154919;23;20021;-71
2023/01/31 07:57:33;;;;;;;19.90;9.00;;;;;;;8.26;59.49;102107.63;6180773;23;20402;-70
2023/01/31 08:00:00;;;;;;;22.13;10.07;;;;;;;8.28;59.64;102107.56;6180845;23;20024;-71
2023/01/31 08:05:21;;;;;;;21.08;9.35;;;;;;;8.32;59.68;102095.81;6180910;23;20096;-71
2023/01/31 08:08:09;;;;;;;29.55;9.57;;;;;;;8.35;59.76;102087.69;6180668;23;20017;-71
2023/01/31 08:10:35;;;;;;;22.92;10.25;;;;;;;8.39;59.55;102099.13;6180878;23;20439;-71
2023/01/31 08:13:02;;;;;;;18.77;8.75;;;;;;;8.40;59.67;102082.13;6180907;22;20511;-69
2023/01/31 08:15:28;;;;;;;20.77;8.95;;;;;;;8.44;59.79;102089.09;6180845;23;20017;-68
2023/01/31 08:17:55;;;;;;;26.98;9.73;;;;;;;8.47;59.58;102091.63;6180794;22;20471;-66
2023/01/31 08:20:22;;;;;;;18.65;8.75;;;;;;;8.49;59.63;102096.00;6181980;23;20398;-69
2023/01/31 08:22:49;;;;;;;21.60;9.10;;;;;;;8.51;59.72;102091.44;6181296;23;20024;-70
2023/01/31 08:25:15;;;;;;;20.50;9.18;;;;;;;8.54;59.73;102088.63;6181180;23;20013;-70
2023/01/31 08:27:45;;;;;;;22.23;9.40;;;;;;;8.58;59.72;102081.34;6180734;23;20009;-69
2023/01/31 08:30:12;;;;;;;23.27;8.88;;;;;;;8.61;59.73;102073.19;6180793;23;20329;-69
2023/01/31 08:32:39;;;;;;;18.85;8.18;;;;;;;8.62;59.78;102066.88;6178240;23;20066;-69
2023/01/31 08:35:06;;;;;;;21.48;7.55;;;;;;;8.66;59.78;102070.28;6151935;23;20013;-69
2023/01/31 08:37:33;;;;;;;17.40;8.68;;;;;;;8.70;59.63;102061.19;6178921;23;20374;-71
2023/01/31 08:39:59;;;;;;;18.85;8.18;;;;;;;8.73;59.68;102067.28;6178941;22;20074;-70
2023/01/31 08:42:26;;;;;;;26.38;9.05;;;;;;;8.77;59.80;102068.88;6179973;23;20020;-70
2023/01/31 08:44:53;;;;;;;21.48;7.78;;;;;;;8.80;59.65;102071.44;6180447;23;20029;-70
2023/01/31 08:47:21;;;;;;;20.17;7.65;;;;;;;8.82;59.53;102066.88;6180652;23;20067;-70
2023/01/31 08:49:48;;;;;;;16.73;7.50;;;;;;;8.86;59.77;102065.81;6180852;23;20063;-70
2023/01/31 08:52:14;;;;;;;23.85;7.40;;;;;;;8.89;59.84;102057.63;6180264;23;20013;-70
2023/01/31 08:54:41;;;;;;;16.88;6.95;;;;;;;8.93;59.70;102054.84;6181231;23;20367;-70
2023/01/31 08:57:08;;;;;;;20.38;7.57;;;;;;;8.96;59.55;102044.84;6181166;23;20100;-70
2023/01/31 08:59:35;;;;;;;13.10;6.70;;;;;;;9.00;59.64;102046.47;6181217;23;20036;-69
2023/01/31 09:02:01;;;;;;;14.57;6.82;;;;;;;9.03;59.57;102050.81;6181121;22;20108;-73
2023/01/31 09:04:28;;;;;;;19.13;6.57;;;;;;;9.07;59.42;102039.88;6181553;23;20083;-73
2023/01/31 09:06:55;;;;;;;18.25;7.00;;;;;;;9.12;59.80;102020.91;6180764;23;20024;-73
2023/01/31 09:09:24;;;;;;;20.35;7.05;;;;;;;9.15;59.75;102027.00;6180064;23;20390;-73
2023/01/31 09:11:51;;;;;;;22.80;7.25;;;;;;;9.19;59.54;102036.63;6153248;23;20059;-73
2023/01/31 09:14:18;;;;;;;19.73;7.38;;;;;;;9.25;59.47;102032.78;6152826;23;20024;-73
2023/01/31 09:16:45;;;;;;;15.95;6.65;;;;;;;9.30;59.47;102029.91;6180606;23;20392;-74
2023/01/31 09:19:12;;;;;;;17.80;7.43;;;;;;;9.35;59.51;102028.75;6179399;23;20282;-73
2023/01/31 09:21:38;;;;;;;16.63;7.07;;;;;;;9.41;59.46;102022.22;6179105;23;20100;-73
2023/01/31 09:24:05;;;;;;;14.48;6.13;;;;;;;9.45;59.34;102024.69;6179668;23;20528;-73
2023/01/31 09:26:32;;;;;;;17.63;6.80;;;;;;;9.50;59.66;102017.28;6180391;23;20045;-73
2023/01/31 09:29:00;;;;;;;18.13;7.55;;;;;;;9.57;59.33;102001.78;6180942;23;20016;-73
2023/01/31 09:31:27;;;;;;;15.50;6.35;;;;;;;9.63;59.30;102011.31;6180380;23;20010;-74
2023/01/31 09:33:54;;;;;;;20.73;7.18;;;;;;;9.66;59.49;102014.75;6153739;23;20031;-74
2023/01/31 09:36:22;;;;;;;18.10;6.35;;;;;;;9.73;59.57;102010.84;6180422;23;20017;-73
2023/01/31 09:38:54;;;;;;;18.45;7.40;;;;;;;9.78;59.71;102016.84;6180729;23;20017;-73
2023/01/31 09:41:31;;;;;;;17.23;7.35;;;;;;;9.85;59.46;102020.97;6154780;22;20013;-73
2023/01/31 09:44:05;;;;;;;18.90;6.38;;;;;;;9.90;59.41;102015.38;6154648;23;20329;-74
2023/01/31 09:46:38;;;;;;;15.00;6.75;;;;;;;9.97;59.39;102008.75;6180789;23;20017;-73
2023/01/31 09:49:15;;;;;;;13.68;6.63;;;;;;;10.01;59.47;102012.16;6154675;23;20470;-73
2023/01/31 09:51:42;;;;;;;17.17;7.43;;;;;;;10.04;59.30;102010.19;6153857;23;20017;-74
2023/01/31 09:54:33;;;;;;;18.08;7.25;;;;;;;10.05;59.33;102009.25;6180490;22;20132;-70
2023/01/31 09:57:11;;;;;;;20.33;6.80;;;;;;;10.10;59.34;102007.19;6180676;23;20036;-73
2023/01/31 09:59:41;;;;;;;13.93;5.95;;;;;;;10.15;59.30;102020.38;6180103;22;20028;-69
2023/01/31 10:02:13;;;;;;;14.95;6.38;;;;;;;10.19;59.19;102000.47;6180248;23;20477;-68
2023/01/31 10:05:04;;;;;;;16.67;6.50;;;;;;;10.25;59.27;102002.00;6180451;23;20096;-69
2023/01/31 10:07:53;;;;;;;16.02;6.90;;;;;;;10.32;59.27;102004.31;6181261;23;20013;-68
2023/01/31 10:10:32;;;;;;;18.05;5.90;;;;;;;10.42;59.09;102002.03;6180240;23;20009;-69
2023/01/31 10:13:05;;;;;;;16.25;6.40;;;;;;;10.47;59.09;101998.16;6154119;22;20024;-69
2023/01/31 10:15:41;;;;;;;14.30;6.90;;;;;;;10.53;58.99;102002.34;6154097;22;20021;-68
2023/01/31 10:18:23;;;;;;;19.80;6.40;;;;;;;10.59;59.37;102004.72;6180157;23;20452;-69
2023/01/31 10:20:55;;;;;;;14.90;6.05;;;;;;;10.66;59.28;102007.94;6178570;23;20032;-70
2023/01/31 10:23:43;;;;;;;14.85;6.10;;;;;;;10.72;59.18;102007.63;6179472;23;20074;-69
2023/01/31 10:26:22;;;;;;;13.63;5.82;;;;;;;10.74;58.73;102003.91;6179631;23;20096;-69
2023/01/31 10:29:03;;;;;;;17.55;6.72;;;;;;;10.75;58.93;101994.88;6180402;22;20017;-69
2023/01/31 10:31:44;;;;;;;18.95;6.68;;;;;;;10.74;58.85;102003.03;6180002;23;20344;-69
2023/01/31 10:34:33;;;;;;;15.00;6.75;;;;;;;10.71;58.81;102001.38;6153551;22;20041;-70
2023/01/31 10:37:04;;;;;;;21.50;7.95;;;;;;;10.74;59.05;102000.34;6154308;23;20018;-70
2023/01/31 10:39:43;;;;;;;17.52;8.27;;;;;;;10.73;58.84;102001.28;6179983;23;20037;-69
2023/01/31 10:42:25;;;;;;;15.50;7.95;;;;;;;10.73;58.79;102006.66;6180157;22;20074;-69
2023/01/31 10:44:54;;;;;;;15.70;7.50;;;;;;;10.74;58.77;102003.03;6181215;23;20035;-69
2023/01/31 10:47:35;;;;;;;17.85;7.93;;;;;;;10.71;58.34;101998.69;6155278;23;20348;-69
2023/01/31 10:50:15;;;;;;;18.40;9.20;;;;;;;10.75;58.85;101996.72;6181527;23;20079;-69
2023/01/31 10:52:41;;;;;;;17.58;9.45;;;;;;;10.76;58.70;101985.00;6181303;23;20036;-70
2023/01/31 10:55:32;;;;;;;20.83;10.55;;;;;;;10.77;58.81;101989.44;6181541;23;20025;-70
2023/01/31 10:57:58;;;;;;;18.55;9.95;;;;;;;10.81;58.64;101986.50;6180705;23;20476;-70
2023/01/31 11:00:29;;;;;;;20.42;11.48;;;;;;;10.83;58.67;101981.91;6187667;23;20020;-71
2023/01/31 11:02:57;;;;;;;21.27;11.65;;;;;;;10.84;58.82;101985.47;6182304;23;20399;-70
2023/01/31 11:05:28;;;;;;;18.17;11.32;;;;;;;10.87;58.84;101971.84;6180725;23;20031;-70
2023/01/31 11:07:57;;;;;;;20.77;11.40;;;;;;;10.91;58.73;101983.31;6179579;22;20470;-70
2023/01/31 11:10:29;;;;;;;21.08;12.68;;;;;;;10.94;58.90;101980.47;6181102;23;20116;-70
2023/01/31 11:13:06;;;;;;;24.92;12.60;;;;;;;10.97;58.82;101970.41;6179825;23;20500;-70
2023/01/31 11:15:39;;;;;;;21.05;13.07;;;;;;;11.00;58.94;101962.16;6179084;23;20532;-70
2023/01/31 11:18:07;;;;;;;24.55;12.95;;;;;;;11.07;59.10;101957.31;6179542;23;20013;-70
2023/01/31 11:20:42;;;;;;;23.60;14.68;;;;;;;11.08;59.12;101957.25;6179725;23;20432;-70
2023/01/31 11:23:14;;;;;;;24.08;15.05;;;;;;;11.14;58.93;101964.97;6152773;22;20444;-72
2023/01/31 11:25:47;;;;;;;24.67;14.43;;;;;;;11.17;59.08;101944.28;6179387;22;20020;-70
2023/01/31 11:28:39;;;;;;;25.58;16.13;;;;;;;11.19;58.86;101942.38;6154583;23;20040;-70
2023/01/31 11:31:18;;;;;;;22.23;14.00;;;;;;;11.23;58.93;101947.47;6181235;23;20092;-71
2023/01/31 11:33:56;;;;;;;27.08;15.18;;;;;;;11.24;58.71;101943.84;6156552;23;20017;-71
2023/01/31 11:36:23;;;;;;;25.80;14.88;;;;;;;11.24;59.00;101949.22;6181206;23;20013;-70
2023/01/31 11:38:50;;;;;;;22.90;15.63;;;;;;;11.25;58.91;101944.72;6180907;23;20023;-71
2023/01/31 11:41:30;;;;;;;25.92;15.40;;;;;;;11.24;59.03;101949.22;6154609;22;20024;-70
2023/01/31 11:44:14;;;;;;;24.65;15.93;;;;;;;11.26;58.79;101941.94;6180511;22;20451;-71
2023/01/31 11:46:49;;;;;;;23.60;16.00;;;;;;;11.27;58.61;101949.03;6180629;22;20017;-71
2023/01/31 11:49:27;;;;;;;25.17;15.40;;;;;;;11.30;59.03;101945.31;6154579;22;20432;-72
2023/01/31 11:51:55;;;;;;;23.50;15.05;;;;;;;11.33;58.77;101942.44;6129687;23;20359;-71